createdAt,value
2023-05-14T00:01:28.263Z,16.00
2023-05-14T00:03:56.960Z,13.30
2023-05-14T00:06:25.434Z,11.90
2023-05-14T00:08:53.478Z,10.82
2023-05-14T00:11:21.561Z,16.23
2023-05-14T00:13:50.715Z,16.60
2023-05-14T00:16:20.877Z,13.68
2023-05-14T00:18:49.233Z,13.35
2023-05-14T00:21:17.633Z,13.60
2023-05-14T00:23:45.832Z,15.07
2023-05-14T00:26:13.992Z,13.57
2023-05-14T00:28:42.559Z,13.63
2023-05-14T00:31:11.231Z,15.45
2023-05-14T00:33:40.711Z,14.95
2023-05-14T00:36:09.880Z,15.20
2023-05-14T00:38:38.005Z,17.27
2023-05-14T00:41:06.463Z,11.98
2023-05-14T00:43:34.809Z,14.18
2023-05-14T00:46:03.238Z,15.23
2023-05-14T00:48:31.468Z,11.57
2023-05-14T00:51:01.692Z,11.27
2023-05-14T00:53:30.180Z,14.10
2023-05-14T00:55:58.893Z,18.13
2023-05-14T00:58:27.156Z,11.70
2023-05-14T01:00:56.350Z,11.38
2023-05-14T01:03:24.652Z,13.02
2023-05-14T01:06:08.423Z,11.85
2023-05-14T01:08:54.390Z,11.45
2023-05-14T01:11:30.770Z,11.07
2023-05-14T01:14:06.863Z,11.77
2023-05-14T01:16:39.025Z,9.88
2023-05-14T01:19:17.770Z,11.17
2023-05-14T01:21:47.605Z,12.80
2023-05-14T01:24:16.064Z,10.77
2023-05-14T01:26:44.305Z,12.27
2023-05-14T01:29:19.947Z,11.50
2023-05-14T01:31:50.307Z,12.05
2023-05-14T01:34:24.140Z,10.85
2023-05-14T01:36:55.259Z,11.40
2023-05-14T01:39:25.835Z,11.98
2023-05-14T01:41:54.504Z,13.00
2023-05-14T01:44:23.882Z,12.95
2023-05-14T01:46:52.101Z,11.50
2023-05-14T01:49:20.312Z,12.32
2023-05-14T01:51:48.502Z,11.30
2023-05-14T01:54:18.151Z,13.18
2023-05-14T01:56:46.339Z,12.88
2023-05-14T01:59:14.205Z,13.18
2023-05-14T02:01:42.323Z,13.85
2023-05-14T02:04:10.963Z,11.85
2023-05-14T02:06:39.096Z,11.27
2023-05-14T02:09:07.658Z,11.98
2023-05-14T02:11:37.533Z,12.98
2023-05-14T02:14:22.666Z,13.52
2023-05-14T02:16:51.395Z,11.43
2023-05-14T02:19:19.512Z,12.77
2023-05-14T02:21:47.583Z,10.65
2023-05-14T02:24:16.667Z,11.88
2023-05-14T02:26:45.933Z,17.80
2023-05-14T02:29:14.127Z,14.63
2023-05-14T02:31:42.225Z,12.52
2023-05-14T02:34:11.630Z,13.02
2023-05-14T02:36:40.305Z,15.48
2023-05-14T02:39:08.330Z,13.00
2023-05-14T02:41:39.825Z,10.82
2023-05-14T02:44:09.105Z,13.18
2023-05-14T02:46:37.546Z,17.40
2023-05-14T02:49:07.631Z,17.05
2023-05-14T02:51:35.833Z,17.27
2023-05-14T02:54:05.081Z,17.98
2023-05-14T02:56:33.020Z,18.15
2023-05-14T02:59:01.023Z,20.23
2023-05-14T03:01:31.057Z,20.52
2023-05-14T03:03:59.660Z,20.00
2023-05-14T03:06:27.797Z,18.88
2023-05-14T03:08:55.694Z,19.92
2023-05-14T03:11:23.704Z,19.10
2023-05-14T03:13:53.186Z,20.48
2023-05-14T03:16:21.699Z,21.38
2023-05-14T03:18:51.426Z,19.85
2023-05-14T03:21:21.208Z,20.95
2023-05-14T03:23:50.527Z,18.58
2023-05-14T03:26:18.743Z,21.02
2023-05-14T03:28:46.769Z,16.83
2023-05-14T03:31:15.199Z,19.30
2023-05-14T03:33:43.258Z,17.83
2023-05-14T03:36:12.980Z,20.73
2023-05-14T03:38:41.154Z,17.05
2023-05-14T03:41:09.442Z,17.48
2023-05-14T03:43:37.417Z,18.98
2023-05-14T03:46:05.667Z,17.60
2023-05-14T03:48:33.687Z,21.88
2023-05-14T03:51:01.994Z,20.55
2023-05-14T03:53:31.720Z,20.40
2023-05-14T03:55:59.965Z,18.23
2023-05-14T03:58:28.438Z,19.67
2023-05-14T04:00:56.766Z,21.00
2023-05-14T04:03:25.767Z,21.10
2023-05-14T04:05:55.755Z,20.17
2023-05-14T04:08:23.985Z,19.92
2023-05-14T04:10:53.292Z,17.52
2023-05-14T04:13:21.361Z,22.85
2023-05-14T04:15:49.526Z,20.80
2023-05-14T04:18:18.779Z,19.73
2023-05-14T04:20:47.193Z,21.92
2023-05-14T04:23:15.107Z,19.65
2023-05-14T04:25:43.394Z,18.73
2023-05-14T04:28:12.780Z,20.63
2023-05-14T04:30:41.276Z,20.90
2023-05-14T04:33:09.407Z,20.13
2023-05-14T04:35:38.128Z,18.85
2023-05-14T04:38:06.415Z,19.70
2023-05-14T04:40:34.963Z,19.05
2023-05-14T04:43:03.467Z,19.73
2023-05-14T04:45:34.409Z,20.50
2023-05-14T04:48:02.547Z,17.80
2023-05-14T04:50:30.755Z,20.13
2023-05-14T04:52:58.685Z,22.20
2023-05-14T04:55:27.423Z,22.00
2023-05-14T04:57:56.081Z,19.80
2023-05-14T05:00:24.628Z,19.17
2023-05-14T05:02:54.720Z,17.92
2023-05-14T05:05:23.061Z,21.15
2023-05-14T05:07:52.237Z,16.40
2023-05-14T05:10:20.193Z,17.23
2023-05-14T05:12:50.792Z,16.90
2023-05-14T05:15:19.109Z,20.52
2023-05-14T05:17:47.419Z,19.90
2023-05-14T05:20:16.975Z,18.80
2023-05-14T05:22:45.350Z,20.40
2023-05-14T05:25:13.394Z,21.85
2023-05-14T05:27:41.738Z,18.33
2023-05-14T05:30:10.796Z,19.17
2023-05-14T05:32:38.833Z,15.68
2023-05-14T05:35:08.775Z,20.73
2023-05-14T05:37:38.188Z,16.70
2023-05-14T05:40:08.188Z,18.08
2023-05-14T05:42:36.429Z,17.08
2023-05-14T05:45:04.704Z,17.10
2023-05-14T05:47:32.838Z,15.95
2023-05-14T05:50:01.318Z,15.50
2023-05-14T05:52:29.648Z,18.17
2023-05-14T05:55:01.595Z,15.02
2023-05-14T05:57:29.847Z,17.98
2023-05-14T05:59:58.012Z,15.55
2023-05-14T06:02:26.394Z,16.58
2023-05-14T06:04:54.556Z,18.05
2023-05-14T06:07:24.012Z,17.20
2023-05-14T06:09:52.452Z,15.25
2023-05-14T06:12:21.736Z,14.82
2023-05-14T06:14:50.128Z,16.15
2023-05-14T06:17:18.340Z,15.02
2023-05-14T06:19:47.202Z,16.45
2023-05-14T06:22:18.620Z,15.40
2023-05-14T06:24:50.158Z,16.00
2023-05-14T06:27:18.138Z,16.10
2023-05-14T06:29:47.564Z,15.98
2023-05-14T06:32:16.111Z,16.90
2023-05-14T06:34:44.680Z,16.17
2023-05-14T06:37:13.101Z,16.83
2023-05-14T06:39:50.413Z,14.48
2023-05-14T06:42:21.685Z,14.68
2023-05-14T06:44:51.241Z,17.48
2023-05-14T06:47:19.522Z,14.50
2023-05-14T06:49:47.633Z,16.20
2023-05-14T06:52:15.505Z,14.95
2023-05-14T06:54:43.413Z,15.75
2023-05-14T06:57:11.631Z,15.35
2023-05-14T06:59:40.011Z,17.40
2023-05-14T07:02:09.490Z,14.10
2023-05-14T07:04:37.724Z,17.88
2023-05-14T07:07:10.774Z,15.70
2023-05-14T07:12:08.077Z,17.80
2023-05-14T07:14:39.458Z,15.40
2023-05-14T07:17:11.117Z,15.02
2023-05-14T07:19:42.563Z,14.68
2023-05-14T07:22:10.883Z,14.15
2023-05-14T07:24:38.842Z,14.88
2023-05-14T07:27:08.839Z,14.27
2023-05-14T07:29:37.274Z,13.00
2023-05-14T07:32:06.009Z,13.30
2023-05-14T07:34:35.536Z,14.27
2023-05-14T07:37:03.766Z,13.52
2023-05-14T07:39:31.971Z,13.18
2023-05-14T07:41:59.937Z,14.00
2023-05-14T07:44:28.090Z,13.48
2023-05-14T07:46:56.261Z,14.15
2023-05-14T07:49:24.455Z,13.43
2023-05-14T07:51:53.733Z,13.23
2023-05-14T07:54:24.087Z,13.35
2023-05-14T07:56:52.381Z,12.77
2023-05-14T07:59:21.410Z,11.32
2023-05-14T08:01:49.751Z,9.30
2023-05-14T08:04:18.415Z,13.60
2023-05-14T08:06:47.641Z,9.13
2023-05-14T08:09:17.177Z,10.13
2023-05-14T08:11:45.514Z,11.85
2023-05-14T08:14:13.475Z,12.93
2023-05-14T08:16:41.479Z,11.20
2023-05-14T08:19:09.779Z,11.68
2023-05-14T08:21:38.108Z,11.70
2023-05-14T08:24:07.153Z,12.57
2023-05-14T08:26:37.005Z,13.40
2023-05-14T08:29:11.243Z,12.57
2023-05-14T08:31:44.322Z,12.50
2023-05-14T08:34:12.411Z,10.70
2023-05-14T08:36:40.465Z,13.02
2023-05-14T08:39:08.856Z,11.65
2023-05-14T08:41:38.875Z,12.57
2023-05-14T08:44:11.954Z,11.68
2023-05-14T08:46:41.221Z,10.27
2023-05-14T08:49:18.908Z,11.05
2023-05-14T08:51:51.756Z,21.45
2023-05-14T08:54:22.477Z,9.95
2023-05-14T08:56:53.805Z,10.43
2023-05-14T08:59:21.854Z,10.02
2023-05-14T09:01:53.430Z,11.75
2023-05-14T09:04:24.116Z,11.63
2023-05-14T09:06:53.551Z,12.07
2023-05-14T09:09:23.110Z,10.40
2023-05-14T09:11:53.671Z,8.57
2023-05-14T09:14:22.009Z,8.25
2023-05-14T09:16:51.304Z,9.15
2023-05-14T09:19:20.320Z,10.52
2023-05-14T09:21:50.835Z,11.27
2023-05-14T09:24:22.657Z,9.65
2023-05-14T09:26:56.314Z,10.50
2023-05-14T09:29:28.832Z,10.35
2023-05-14T09:31:58.214Z,10.27
2023-05-14T09:34:28.084Z,10.65
2023-05-14T09:36:58.023Z,9.05
2023-05-14T09:39:27.451Z,8.15
2023-05-14T09:41:59.610Z,10.98
2023-05-14T09:44:28.504Z,9.40
2023-05-14T09:46:56.690Z,8.30
2023-05-14T09:49:24.710Z,11.32
2023-05-14T09:51:52.928Z,8.02
2023-05-14T09:54:21.000Z,8.25
2023-05-14T09:56:48.898Z,8.80
2023-05-14T09:59:18.506Z,10.20
2023-05-14T10:01:47.820Z,7.80
2023-05-14T10:04:16.565Z,7.68
2023-05-14T10:06:48.781Z,7.43
2023-05-14T10:09:22.205Z,8.00
2023-05-14T10:11:54.258Z,8.60
2023-05-14T10:14:30.589Z,9.60
2023-05-14T10:17:02.484Z,8.73
2023-05-14T10:19:35.133Z,7.90
2023-05-14T10:22:06.137Z,7.60
2023-05-14T10:24:34.636Z,6.82
2023-05-14T10:27:03.475Z,8.23
2023-05-14T10:29:37.991Z,7.60
2023-05-14T10:32:08.942Z,5.57
2023-05-14T10:34:42.675Z,6.28
2023-05-14T10:37:12.938Z,6.10
2023-05-14T10:39:51.464Z,6.93
2023-05-14T10:42:21.485Z,6.50
2023-05-14T10:44:54.990Z,8.70
2023-05-14T10:47:23.732Z,6.30
2023-05-14T10:49:55.067Z,6.43
2023-05-14T10:52:23.637Z,5.40
2023-05-14T10:54:53.327Z,6.78
2023-05-14T10:57:23.048Z,6.18
2023-05-14T10:59:55.199Z,6.05
2023-05-14T11:02:25.878Z,6.45
2023-05-14T11:04:58.825Z,5.50
2023-05-14T11:07:30.228Z,5.55
2023-05-14T11:10:05.604Z,5.90
2023-05-14T11:12:34.510Z,5.55
2023-05-14T11:15:06.125Z,7.55
2023-05-14T11:17:38.665Z,6.95
2023-05-14T11:20:11.747Z,6.28
2023-05-14T11:22:40.952Z,5.43
2023-05-14T11:25:10.154Z,5.60
2023-05-14T11:27:39.701Z,5.63
2023-05-14T11:30:14.588Z,6.53
2023-05-14T11:32:43.781Z,7.50
2023-05-14T11:35:12.085Z,5.10
2023-05-14T11:37:40.288Z,4.85
2023-05-14T11:40:11.013Z,5.70
2023-05-14T11:42:39.703Z,8.75
2023-05-14T11:45:13.103Z,5.88
2023-05-14T11:47:42.931Z,6.90
2023-05-14T11:50:11.867Z,6.85
2023-05-14T11:52:42.073Z,6.00
2023-05-14T11:55:13.517Z,6.30
2023-05-14T11:57:42.036Z,5.60
2023-05-14T12:00:16.862Z,6.55
2023-05-14T12:02:50.074Z,6.15
2023-05-14T12:05:18.564Z,8.07
2023-05-14T12:07:49.193Z,5.50
2023-05-14T12:10:22.268Z,5.57
2023-05-14T12:12:50.719Z,6.07
2023-05-14T12:15:21.828Z,6.50
2023-05-14T12:17:53.033Z,5.40
2023-05-14T12:20:21.150Z,9.18
2023-05-14T12:22:52.493Z,5.25
2023-05-14T12:25:21.035Z,5.95
2023-05-14T12:27:49.300Z,5.32
2023-05-14T12:30:21.695Z,5.15
2023-05-14T12:35:23.367Z,5.53
2023-05-14T12:37:51.577Z,4.72
2023-05-14T12:40:19.866Z,6.25
2023-05-14T12:42:48.450Z,5.68
2023-05-14T12:45:16.731Z,6.93
2023-05-14T12:47:45.421Z,5.47
2023-05-14T12:50:15.531Z,5.80
2023-05-14T12:52:43.424Z,6.28
2023-05-14T12:55:11.522Z,5.82
2023-05-14T12:57:39.848Z,8.02
2023-05-14T13:00:13.674Z,5.93
2023-05-14T13:02:43.970Z,5.35
2023-05-14T13:05:14.146Z,5.70
2023-05-14T13:07:42.234Z,5.97
2023-05-14T13:10:12.077Z,6.60
2023-05-14T13:12:41.516Z,4.85
2023-05-14T13:15:11.091Z,6.53
2023-05-14T13:17:39.052Z,5.45
2023-05-14T13:20:08.349Z,5.65
2023-05-14T13:22:39.419Z,5.38
2023-05-14T13:25:11.721Z,5.97
2023-05-14T13:27:40.057Z,4.75
2023-05-14T13:30:09.332Z,4.35
2023-05-14T13:32:37.584Z,5.43
2023-05-14T13:35:07.752Z,5.13
2023-05-14T13:37:38.392Z,5.15
2023-05-14T13:40:09.423Z,7.10
2023-05-14T13:42:41.988Z,5.43
2023-05-14T13:45:11.726Z,5.53
2023-05-14T13:47:40.350Z,4.47
2023-05-14T13:50:09.744Z,4.68
2023-05-14T13:52:39.284Z,4.82
2023-05-14T13:55:09.953Z,4.72
2023-05-14T13:57:42.724Z,4.45
2023-05-14T14:02:39.165Z,5.57
2023-05-14T14:05:08.324Z,4.95
2023-05-14T14:07:36.471Z,3.63
2023-05-14T14:10:05.714Z,4.15
2023-05-14T14:12:35.920Z,4.63
2023-05-14T14:15:05.349Z,6.53
2023-05-14T14:17:34.090Z,3.72
2023-05-14T14:20:05.046Z,5.05
2023-05-14T14:22:33.569Z,4.22
2023-05-14T14:25:04.242Z,3.70
2023-05-14T14:27:34.990Z,4.47
2023-05-14T14:30:04.921Z,3.80
2023-05-14T14:32:36.645Z,4.25
2023-05-14T14:35:05.223Z,3.87
2023-05-14T14:37:33.700Z,5.00
2023-05-14T14:40:02.665Z,4.50
2023-05-14T14:42:30.623Z,4.43
2023-05-14T14:44:59.849Z,3.72
2023-05-14T14:47:31.532Z,3.95
2023-05-14T14:49:59.887Z,4.70
2023-05-14T14:52:29.421Z,3.80
2023-05-14T14:54:59.044Z,3.95
2023-05-14T14:57:27.296Z,4.43
2023-05-14T14:59:55.529Z,3.75
2023-05-14T15:02:24.144Z,3.88
2023-05-14T15:04:56.134Z,5.97
2023-05-14T15:07:24.298Z,5.28
2023-05-14T15:09:52.404Z,4.43
2023-05-14T15:12:20.729Z,4.78
2023-05-14T15:14:48.834Z,4.60
2023-05-14T15:17:16.952Z,4.25
2023-05-14T15:19:47.661Z,6.03
2023-05-14T15:22:18.604Z,4.53
2023-05-14T15:24:48.119Z,4.95
2023-05-14T15:27:21.192Z,4.35
2023-05-14T15:29:53.329Z,4.63
2023-05-14T15:32:21.635Z,4.10
2023-05-14T15:34:51.757Z,4.68
2023-05-14T15:37:21.456Z,3.35
2023-05-14T15:39:49.405Z,4.85
2023-05-14T15:42:18.007Z,3.70
2023-05-14T15:44:46.471Z,3.67
2023-05-14T15:47:15.125Z,3.90
2023-05-14T15:49:43.020Z,3.85
2023-05-14T15:52:11.333Z,3.80
2023-05-14T15:54:40.684Z,3.65
2023-05-14T15:57:09.327Z,4.43
2023-05-14T15:59:37.771Z,3.80
2023-05-14T16:02:06.108Z,3.97
2023-05-14T16:04:34.089Z,3.08
2023-05-14T16:07:05.936Z,3.92
2023-05-14T16:09:35.264Z,2.97
2023-05-14T16:12:05.286Z,3.47
2023-05-14T16:14:36.835Z,3.75
2023-05-14T16:17:07.388Z,3.93
2023-05-14T16:19:35.594Z,4.13
2023-05-14T16:22:04.011Z,3.63
2023-05-14T16:24:32.151Z,3.78
2023-05-14T16:27:03.181Z,4.20
2023-05-14T16:29:39.169Z,2.92
2023-05-14T16:32:07.526Z,6.85
2023-05-14T16:34:36.751Z,3.95
2023-05-14T16:37:04.966Z,5.22
2023-05-14T16:39:34.618Z,4.68
2023-05-14T16:42:03.240Z,2.95
2023-05-14T16:44:32.884Z,4.45
2023-05-14T16:47:00.863Z,3.45
2023-05-14T16:49:28.956Z,4.85
2023-05-14T16:51:57.586Z,5.05
2023-05-14T16:54:25.808Z,3.63
2023-05-14T16:56:53.777Z,3.60
2023-05-14T16:59:21.868Z,4.95
2023-05-14T17:01:52.178Z,3.40
2023-05-14T17:04:22.220Z,4.43
2023-05-14T17:06:51.907Z,4.60
2023-05-14T17:09:23.795Z,4.55
2023-05-14T17:11:54.585Z,4.13
2023-05-14T17:14:22.865Z,3.80
2023-05-14T17:16:52.504Z,4.30
2023-05-14T17:19:20.703Z,4.72
2023-05-14T17:21:48.993Z,4.68
2023-05-14T17:24:17.195Z,4.03
2023-05-14T17:26:45.298Z,3.50
2023-05-14T17:29:13.522Z,4.70
2023-05-14T17:31:41.492Z,4.13
2023-05-14T17:34:10.804Z,4.55
2023-05-14T17:36:41.835Z,4.28
2023-05-14T17:39:10.122Z,4.47
2023-05-14T17:41:40.547Z,3.83
2023-05-14T17:44:09.479Z,3.92
2023-05-14T17:46:38.744Z,4.07
2023-05-14T17:49:07.147Z,4.95
2023-05-14T17:51:39.153Z,4.82
2023-05-14T17:54:09.643Z,4.30
2023-05-14T17:56:37.612Z,4.05
2023-05-14T17:59:07.211Z,4.60
2023-05-14T18:01:36.147Z,4.90
2023-05-14T18:04:04.662Z,6.18
2023-05-14T18:06:33.058Z,5.13
2023-05-14T18:09:02.819Z,4.35
2023-05-14T18:11:34.007Z,4.57
2023-05-14T18:14:03.240Z,3.47
2023-05-14T18:16:31.634Z,5.80
2023-05-14T18:19:00.856Z,3.50
2023-05-14T18:21:28.724Z,3.58
2023-05-14T18:23:56.837Z,5.60
2023-05-14T18:26:26.729Z,6.53
2023-05-14T18:28:54.875Z,3.97
2023-05-14T18:31:22.881Z,4.03
2023-05-14T18:33:51.651Z,4.10
2023-05-14T18:36:23.177Z,3.60
2023-05-14T18:38:51.036Z,5.80
2023-05-14T18:41:19.548Z,5.25
2023-05-14T18:43:49.233Z,4.43
2023-05-14T18:46:18.189Z,4.82
2023-05-14T18:48:46.232Z,4.10
2023-05-14T18:51:14.505Z,3.70
2023-05-14T18:53:42.564Z,4.50
2023-05-14T18:56:11.315Z,4.45
2023-05-14T18:58:39.301Z,3.78
2023-05-14T19:01:10.115Z,3.85
2023-05-14T19:03:38.442Z,4.30
2023-05-14T19:06:06.994Z,4.75
2023-05-14T19:08:36.110Z,4.68
2023-05-14T19:11:06.034Z,3.92
2023-05-14T19:13:35.023Z,4.15
2023-05-14T19:16:04.054Z,5.47
2023-05-14T19:18:33.528Z,4.30
2023-05-14T19:21:01.681Z,6.03
2023-05-14T19:23:31.570Z,5.50
2023-05-14T19:25:59.791Z,5.32
2023-05-14T19:28:29.219Z,4.93
2023-05-14T19:30:57.387Z,3.90
2023-05-14T19:33:26.078Z,5.10
2023-05-14T19:35:56.700Z,4.70
2023-05-14T19:38:24.885Z,6.15
2023-05-14T19:40:56.786Z,3.47
2023-05-14T19:43:25.516Z,4.75
2023-05-14T19:45:55.012Z,3.33
2023-05-14T19:48:23.134Z,3.95
2023-05-14T19:50:51.838Z,3.10
2023-05-14T19:53:21.443Z,3.90
2023-05-14T19:55:49.793Z,3.67
2023-05-14T19:58:18.116Z,2.90
2023-05-14T20:00:47.406Z,3.95
2023-05-14T20:03:18.005Z,3.40
2023-05-14T20:05:46.632Z,3.72
2023-05-14T20:08:14.476Z,3.00
2023-05-14T20:10:44.640Z,3.03
2023-05-14T20:13:12.849Z,4.05
2023-05-14T20:15:42.869Z,4.57
2023-05-14T20:18:11.204Z,3.78
2023-05-14T20:20:40.211Z,3.20
2023-05-14T20:23:09.473Z,4.93
2023-05-14T20:25:38.473Z,4.38
2023-05-14T20:28:10.558Z,4.22
2023-05-14T20:30:38.940Z,5.55
2023-05-14T20:33:08.170Z,6.22
2023-05-14T20:35:36.164Z,5.03
2023-05-14T20:38:07.494Z,3.90
2023-05-14T20:40:35.636Z,5.32
2023-05-14T20:43:06.784Z,5.93
2023-05-14T20:45:36.412Z,6.00
2023-05-14T20:48:08.812Z,5.70
2023-05-14T20:50:37.187Z,5.20
2023-05-14T20:53:05.759Z,4.50
2023-05-14T20:55:33.924Z,5.60
2023-05-14T20:58:02.133Z,5.22
2023-05-14T21:00:30.079Z,4.30
2023-05-14T21:03:00.272Z,4.65
2023-05-14T21:05:29.234Z,4.57
2023-05-14T21:07:57.186Z,5.13
2023-05-14T21:10:28.468Z,4.10
2023-05-14T21:12:57.529Z,4.47
2023-05-14T21:15:27.228Z,6.53
2023-05-14T21:17:56.741Z,4.63
2023-05-14T21:20:26.063Z,3.45
2023-05-14T21:22:54.165Z,6.55
2023-05-14T21:25:22.164Z,5.43
2023-05-14T21:27:50.558Z,4.63
2023-05-14T21:30:18.770Z,4.25
2023-05-14T21:32:46.796Z,6.63
2023-05-14T21:35:15.020Z,4.05
2023-05-14T21:37:44.541Z,5.65
2023-05-14T21:40:14.162Z,5.10
2023-05-14T21:42:42.122Z,4.20
2023-05-14T21:45:11.571Z,5.20
2023-05-14T21:47:39.784Z,5.07
2023-05-14T21:50:08.622Z,5.00
2023-05-14T21:52:36.584Z,6.30
2023-05-14T21:55:08.148Z,5.07
2023-05-14T21:57:36.180Z,4.78
2023-05-14T22:00:08.459Z,5.05
2023-05-14T22:02:36.640Z,4.73
2023-05-14T22:05:05.399Z,3.97
2023-05-14T22:07:35.905Z,5.43
2023-05-14T22:10:04.326Z,4.95
2023-05-14T22:12:37.082Z,4.70
2023-05-14T22:15:07.124Z,6.50
2023-05-14T22:17:35.106Z,8.60
2023-05-14T22:20:05.580Z,7.05
2023-05-14T22:22:33.716Z,5.63
2023-05-14T22:25:03.595Z,5.30
2023-05-14T22:27:33.013Z,5.43
2023-05-14T22:30:05.110Z,5.72
2023-05-14T22:32:33.611Z,5.32
2023-05-14T22:35:01.811Z,7.07
2023-05-14T22:37:29.745Z,5.05
2023-05-14T22:39:57.590Z,6.63
2023-05-14T22:42:27.236Z,5.78
2023-05-14T22:44:57.005Z,6.78
2023-05-14T22:47:25.448Z,6.78
2023-05-14T22:49:54.200Z,10.70
2023-05-14T22:52:22.198Z,6.35
2023-05-14T22:54:51.193Z,5.88
2023-05-14T22:57:19.116Z,7.97
2023-05-14T22:59:47.289Z,6.05
2023-05-14T23:02:16.660Z,6.75
2023-05-14T23:04:44.740Z,5.70
2023-05-14T23:07:12.960Z,6.65
2023-05-14T23:09:41.757Z,5.80
2023-05-14T23:12:11.061Z,6.80
2023-05-14T23:14:40.552Z,4.47
2023-05-14T23:17:09.111Z,7.38
2023-05-14T23:19:38.499Z,4.85
2023-05-14T23:22:06.761Z,4.63
2023-05-14T23:24:38.505Z,7.45
2023-05-14T23:27:08.944Z,5.47
2023-05-14T23:29:40.869Z,6.03
2023-05-14T23:32:09.405Z,4.47
2023-05-14T23:34:41.998Z,4.53
2023-05-14T23:37:10.584Z,7.22
2023-05-14T23:39:38.683Z,5.85
2023-05-14T23:42:06.988Z,5.30
2023-05-14T23:44:34.922Z,5.78
2023-05-14T23:47:07.277Z,7.50
2023-05-14T23:49:35.682Z,5.68
2023-05-14T23:52:08.275Z,6.70
2023-05-14T23:54:36.502Z,6.53
2023-05-14T23:57:05.229Z,4.82
2023-05-14T23:59:33.418Z,6.13
